createdAt,value
2022-09-30T00:00:24.208Z,-23413.25
2022-09-30T00:02:26.870Z,-23414.53
2022-09-30T00:04:30.848Z,-23415.16
2022-09-30T00:06:35.163Z,-23416.75
2022-09-30T00:08:38.873Z,-23418.97
2022-09-30T00:10:41.504Z,-23418.66
2022-09-30T00:12:44.182Z,-23422.63
2022-09-30T00:14:46.753Z,-23417.69
2022-09-30T00:16:50.151Z,-23418.97
2022-09-30T00:18:56.329Z,-23421.66
2022-09-30T00:21:00.611Z,-23423.56
2022-09-30T00:23:03.197Z,-23420.72
2022-09-30T00:25:06.338Z,-23421.81
2022-09-30T00:27:08.990Z,-23424.38
2022-09-30T00:29:12.255Z,-23424.84
2022-09-30T00:31:17.835Z,-23430.72
2022-09-30T00:33:20.527Z,-23427.84
2022-09-30T00:35:23.157Z,-23426.59
2022-09-30T00:37:27.161Z,-23426.59
2022-09-30T00:39:31.301Z,-23429.78
2022-09-30T00:41:34.045Z,-23431.53
2022-09-30T00:43:43.065Z,-23433.28
2022-09-30T00:45:52.158Z,-23435.47
2022-09-30T00:47:57.419Z,-23436.75
2022-09-30T00:50:03.261Z,-23438.34
2022-09-30T00:52:05.956Z,-23433.09
2022-09-30T00:54:13.920Z,-23435.81
2022-09-30T00:56:19.844Z,-23436.28
2022-09-30T00:58:29.322Z,-23432.16
2022-09-30T01:00:31.946Z,-23435.00
2022-09-30T01:02:35.142Z,-23434.22
2022-09-30T01:04:39.202Z,-23435.16
2022-09-30T01:06:42.514Z,-23436.44
2022-09-30T01:08:46.447Z,-23435.81
2022-09-30T01:10:50.375Z,-23439.13
2022-09-30T01:12:53.411Z,-23431.84
2022-09-30T01:15:00.493Z,-23432.78
2022-09-30T01:17:11.631Z,-23431.34
2022-09-30T01:20:03.299Z,-23442.47
2022-09-30T01:22:20.667Z,-23439.28
2022-09-30T01:24:47.088Z,-23442.47
2022-09-30T01:27:06.548Z,-23437.41
2022-09-30T01:29:29.889Z,-23431.34
2022-09-30T01:31:47.940Z,-23425.97
2022-09-30T01:33:59.963Z,-23431.69
2022-09-30T01:36:17.252Z,-23436.75
2022-09-30T01:38:29.258Z,-23431.34
2022-09-30T01:40:45.391Z,-23423.72
2022-09-30T01:42:55.919Z,-23425.97
2022-09-30T01:45:06.254Z,-23430.72
2022-09-30T01:47:16.105Z,-23426.91
2022-09-30T01:49:25.747Z,-23422.00
2022-09-30T01:51:36.123Z,-23421.66
2022-09-30T01:53:42.640Z,-23416.91
2022-09-30T01:55:51.595Z,-23420.41
2022-09-30T01:58:01.390Z,-23426.44
2022-09-30T02:00:08.168Z,-23420.56
2022-09-30T02:02:15.211Z,-23418.97
2022-09-30T02:04:25.117Z,-23416.59
2022-09-30T02:06:34.377Z,-23417.06
2022-09-30T02:08:42.463Z,-23415.78
2022-09-30T02:10:49.218Z,-23410.88
2022-09-30T02:12:59.126Z,-23409.44
2022-09-30T02:15:07.287Z,-23406.91
2022-09-30T02:17:15.980Z,-23410.72
2022-09-30T02:19:23.194Z,-23408.81
2022-09-30T02:21:31.124Z,-23405.63
2022-09-30T02:23:36.867Z,-23406.28
2022-09-30T02:25:45.842Z,-23403.72
2022-09-30T02:27:52.825Z,-23406.91
2022-09-30T02:29:59.394Z,-23411.66
2022-09-30T02:32:06.293Z,-23414.53
2022-09-30T02:34:14.863Z,-23417.06
2022-09-30T02:36:23.925Z,-23415.16
2022-09-30T02:38:31.742Z,-23411.66
2022-09-30T02:40:39.765Z,-23414.84
2022-09-30T02:42:46.319Z,-23417.69
2022-09-30T02:44:52.089Z,-23417.69
2022-09-30T02:47:03.602Z,-23415.16
2022-09-30T02:49:10.737Z,-23414.84
2022-09-30T02:51:20.767Z,-23417.06
2022-09-30T02:53:28.768Z,-23412.78
2022-09-30T02:55:38.277Z,-23414.84
2022-09-30T02:57:47.402Z,-23415.78
2022-09-30T02:59:52.961Z,-23419.28
2022-09-30T03:01:56.212Z,-23418.66
2022-09-30T03:04:03.467Z,-23416.59
2022-09-30T03:06:06.796Z,-23415.97
2022-09-30T03:08:12.314Z,-23417.69
2022-09-30T03:10:16.416Z,-23420.72
2022-09-30T03:12:31.959Z,-23420.41
2022-09-30T03:14:46.370Z,-23418.66
2022-09-30T03:17:11.995Z,-23416.91
2022-09-30T03:19:33.213Z,-23418.34
2022-09-30T03:21:50.049Z,-23414.53
2022-09-30T03:24:22.196Z,-23413.25
2022-09-30T03:26:36.595Z,-23417.06
2022-09-30T03:28:48.662Z,-23413.41
2022-09-30T03:30:58.771Z,-23413.88
2022-09-30T03:33:10.718Z,-23418.19
2022-09-30T03:35:21.623Z,-23417.53
2022-09-30T03:37:31.572Z,-23420.72
2022-09-30T03:39:44.741Z,-23419.13
2022-09-30T03:41:53.977Z,-23419.13
2022-09-30T03:44:03.107Z,-23421.03
2022-09-30T03:46:13.892Z,-23419.59
2022-09-30T03:48:17.823Z,-23418.50
2022-09-30T03:50:22.877Z,-23416.75
2022-09-30T03:52:27.113Z,-23415.47
2022-09-30T03:54:29.907Z,-23415.00
2022-09-30T03:56:34.488Z,-23417.38
2022-09-30T03:58:41.843Z,-23421.03
2022-09-30T04:00:49.837Z,-23414.84
2022-09-30T04:02:55.878Z,-23413.88
2022-09-30T04:05:00.394Z,-23412.31
2022-09-30T04:07:03.123Z,-23412.94
2022-09-30T04:09:05.766Z,-23414.53
2022-09-30T04:11:08.366Z,-23414.22
2022-09-30T04:13:12.753Z,-23411.19
2022-09-30T04:15:15.366Z,-23408.50
2022-09-30T04:17:17.975Z,-23408.81
2022-09-30T04:19:20.615Z,-23408.16
2022-09-30T04:21:24.020Z,-23410.41
2022-09-30T04:23:26.740Z,-23408.16
2022-09-30T04:25:30.032Z,-23410.72
2022-09-30T04:27:32.649Z,-23407.22
2022-09-30T04:29:36.612Z,-23406.41
2022-09-30T04:31:39.226Z,-23402.63
2022-09-30T04:33:42.084Z,-23399.13
2022-09-30T04:35:44.686Z,-23406.75
2022-09-30T04:37:47.984Z,-23408.97
2022-09-30T04:39:50.590Z,-23400.22
2022-09-30T04:41:53.923Z,-23391.97
2022-09-30T04:43:56.861Z,-23396.72
2022-09-30T04:46:01.509Z,-23398.78
2022-09-30T04:48:04.268Z,-23402.63
2022-09-30T04:50:07.604Z,-23398.31
2022-09-30T04:52:10.223Z,-23383.38
2022-09-30T04:54:13.808Z,-23381.47
2022-09-30T04:56:17.680Z,-23373.84
2022-09-30T04:58:20.322Z,-23375.28
2022-09-30T05:00:25.088Z,-23379.56
2022-09-30T05:02:29.386Z,-23378.94
2022-09-30T05:04:33.420Z,-23375.13
2022-09-30T05:06:36.265Z,-23380.53
2022-09-30T05:08:44.686Z,-23370.66
2022-09-30T05:10:55.036Z,-23369.72
2022-09-30T05:12:58.181Z,-23369.25
2022-09-30T05:15:00.845Z,-23363.34
2022-09-30T05:17:03.472Z,-23366.53
2022-09-30T05:19:07.482Z,-23364.00
2022-09-30T05:21:11.070Z,-23364.94
2022-09-30T05:23:13.740Z,-23360.00
2022-09-30T05:25:16.517Z,-23366.38
2022-09-30T05:27:19.349Z,-23363.03
2022-09-30T05:29:22.112Z,-23363.03
2022-09-30T05:31:24.858Z,-23364.63
2022-09-30T05:33:29.365Z,-23368.44
2022-09-30T05:35:33.311Z,-23371.94
2022-09-30T05:37:35.913Z,-23372.41
2022-09-30T05:39:38.616Z,-23371.94
2022-09-30T05:41:41.453Z,-23370.34
2022-09-30T05:43:46.637Z,-23372.25
2022-09-30T05:45:55.776Z,-23372.91
2022-09-30T05:47:58.385Z,-23375.75
2022-09-30T05:50:00.967Z,-23368.59
2022-09-30T05:52:05.258Z,-23373.38
2022-09-30T05:54:07.923Z,-23373.22
2022-09-30T05:56:11.759Z,-23365.56
2022-09-30T05:58:14.528Z,-23364.47
2022-09-30T06:00:18.424Z,-23375.91
2022-09-30T06:02:21.154Z,-23373.06
2022-09-30T06:04:23.862Z,-23383.88
2022-09-30T06:06:27.199Z,-23375.44
2022-09-30T06:08:31.455Z,-23376.06
2022-09-30T06:10:34.650Z,-23375.44
2022-09-30T06:12:38.459Z,-23374.81
2022-09-30T06:14:41.116Z,-23372.09
2022-09-30T06:16:43.727Z,-23366.69
2022-09-30T06:18:46.778Z,-23373.38
2022-09-30T06:20:49.405Z,-23374.00
2022-09-30T06:22:52.204Z,-23374.00
2022-09-30T06:24:56.189Z,-23384.03
2022-09-30T06:26:58.838Z,-23387.03
2022-09-30T06:29:01.482Z,-23376.56
2022-09-30T06:31:04.814Z,-23377.97
2022-09-30T06:33:07.530Z,-23384.97
2022-09-30T06:35:11.906Z,-23387.53
2022-09-30T06:37:15.966Z,-23393.88
2022-09-30T06:39:18.951Z,-23394.81
2022-09-30T06:41:24.456Z,-23395.16
2022-09-30T06:43:27.103Z,-23397.06
2022-09-30T06:45:33.335Z,-23410.06
2022-09-30T06:47:36.165Z,-23395.16
2022-09-30T06:49:47.977Z,-23410.06
2022-09-30T06:51:52.078Z,-23414.84
2022-09-30T06:53:55.141Z,-23419.28
2022-09-30T06:55:57.937Z,-23410.41
2022-09-30T06:58:01.928Z,-23413.25
2022-09-30T07:00:05.929Z,-23431.69
2022-09-30T07:02:10.755Z,-23427.53
2022-09-30T07:04:13.768Z,-23425.63
2022-09-30T07:06:16.633Z,-23415.31
2022-09-30T07:08:19.185Z,-23401.34
2022-09-30T07:10:21.853Z,-23405.31
2022-09-30T07:12:24.871Z,-23421.34
2022-09-30T07:14:28.823Z,-23422.16
2022-09-30T07:16:32.106Z,-23426.44
2022-09-30T07:18:34.745Z,-23419.59
2022-09-30T07:20:37.373Z,-23410.72
2022-09-30T07:22:41.039Z,-23409.44
2022-09-30T07:24:43.722Z,-23419.75
2022-09-30T07:26:46.294Z,-23416.91
2022-09-30T07:28:49.835Z,-23413.09
2022-09-30T07:31:13.482Z,-23411.97
2022-09-30T07:33:18.810Z,-23408.00
2022-09-30T07:35:21.469Z,-23410.06
2022-09-30T07:37:25.951Z,-23419.94
2022-09-30T07:39:28.528Z,-23439.94
2022-09-30T07:41:31.155Z,-23438.97
2022-09-30T07:43:38.577Z,-23441.53
2022-09-30T07:45:41.320Z,-23446.75
2022-09-30T07:47:48.450Z,-23426.59
2022-09-30T07:49:53.671Z,-23428.97
2022-09-30T07:51:59.488Z,-23435.47
2022-09-30T07:54:05.737Z,-23452.47
2022-09-30T07:56:09.508Z,-23456.91
2022-09-30T07:58:12.117Z,-23447.88
2022-09-30T08:00:37.875Z,-23453.09
2022-09-30T08:02:37.316Z,-23461.66
2022-09-30T08:04:43.967Z,-23454.53
2022-09-30T08:06:50.294Z,-23465.00
2022-09-30T08:08:54.255Z,-23481.16
2022-09-30T08:10:59.854Z,-23465.31
2022-09-30T08:13:05.704Z,-23483.72
2022-09-30T08:15:10.484Z,-23475.94
2022-09-30T08:17:13.582Z,-23471.66
2022-09-30T08:19:18.918Z,-23485.44
2022-09-30T08:21:23.263Z,-23480.53
2022-09-30T08:23:25.862Z,-23485.75
2022-09-30T08:25:28.698Z,-23481.66
2022-09-30T08:27:31.347Z,-23479.91
2022-09-30T08:30:04.690Z,-23490.69
2022-09-30T08:31:56.656Z,-23501.13
2022-09-30T08:33:59.539Z,-23497.34
2022-09-30T08:36:06.589Z,-23508.59
2022-09-30T08:38:10.547Z,-23510.66
2022-09-30T08:40:22.411Z,-23503.84
2022-09-30T08:42:51.832Z,-23488.78
2022-09-30T08:45:07.513Z,-23490.38
2022-09-30T08:47:29.568Z,-23527.59
2022-09-30T08:49:47.010Z,-23526.63
2022-09-30T08:51:51.673Z,-23518.88
2022-09-30T08:53:56.192Z,-23533.28
2022-09-30T08:56:02.510Z,-23546.09
2022-09-30T08:58:07.024Z,-23559.06
2022-09-30T09:00:16.102Z,-23572.69
2022-09-30T09:02:27.526Z,-23589.59
2022-09-30T09:04:30.321Z,-23597.66
2022-09-30T09:06:39.668Z,-23638.88
2022-09-30T09:09:00.552Z,-23640.44
2022-09-30T09:11:12.243Z,-23651.16
2022-09-30T09:13:40.769Z,-23639.19
2022-09-30T09:16:04.452Z,-23648.16
2022-09-30T09:18:24.324Z,-23675.59
2022-09-30T09:20:34.235Z,-23626.72
2022-09-30T09:22:38.431Z,-23659.84
2022-09-30T09:24:46.119Z,-23643.13
2022-09-30T09:26:49.323Z,-23610.59
2022-09-30T09:29:04.340Z,-23631.44
2022-09-30T09:31:14.306Z,-23647.22
2022-09-30T09:33:21.338Z,-23674.66
2022-09-30T09:35:37.354Z,-23691.69
2022-09-30T09:38:10.109Z,-23628.59
2022-09-30T09:40:22.893Z,-23707.25
2022-09-30T09:42:43.094Z,-23681.13
2022-09-30T09:44:54.007Z,-23673.72
2022-09-30T09:47:05.033Z,-23668.66
2022-09-30T09:49:30.270Z,-23694.19
2022-09-30T09:51:37.430Z,-23725.69
2022-09-30T09:53:48.204Z,-23668.97
2022-09-30T09:55:57.132Z,-23686.31
2022-09-30T09:58:07.240Z,-23635.22
2022-09-30T10:00:29.780Z,-23730.72
2022-09-30T10:02:33.479Z,-23722.84
2022-09-30T10:04:50.946Z,-23776.47
2022-09-30T10:06:55.608Z,-23721.59
2022-09-30T10:08:58.394Z,-23731.03
2022-09-30T10:11:05.374Z,-23730.09
2022-09-30T10:13:19.044Z,-23742.66
2022-09-30T10:15:24.101Z,-23716.88
2022-09-30T10:17:30.439Z,-23716.41
2022-09-30T10:19:35.980Z,-23683.16
2022-09-30T10:21:38.594Z,-23671.66
2022-09-30T10:23:42.142Z,-23745.50
2022-09-30T10:25:56.853Z,-23684.75
2022-09-30T10:28:02.255Z,-23716.88
2022-09-30T10:30:05.856Z,-23699.72
2022-09-30T10:32:10.418Z,-23689.00
2022-09-30T10:34:25.818Z,-23712.78
2022-09-30T10:36:33.324Z,-23662.34
2022-09-30T10:38:38.151Z,-23656.06
2022-09-30T10:40:40.855Z,-23697.19
2022-09-30T10:42:48.691Z,-23668.97
2022-09-30T10:44:55.954Z,-23684.25
2022-09-30T10:47:02.417Z,-23669.28
2022-09-30T10:49:10.506Z,-23647.53
2022-09-30T10:51:25.203Z,-23636.81
2022-09-30T10:53:30.736Z,-23633.50
2022-09-30T10:55:35.485Z,-23628.91
2022-09-30T10:57:39.560Z,-23645.00
2022-09-30T10:59:44.746Z,-23622.91
2022-09-30T11:01:54.997Z,-23618.34
2022-09-30T11:04:07.123Z,-23630.03
2022-09-30T11:06:15.074Z,-23622.91
2022-09-30T11:08:24.079Z,-23621.97
2022-09-30T11:10:35.756Z,-23625.13
2022-09-30T11:12:45.090Z,-23606.19
2022-09-30T11:14:52.540Z,-23614.72
2022-09-30T11:17:07.276Z,-23615.19
2022-09-30T11:19:18.801Z,-23627.03
2022-09-30T11:21:27.080Z,-23633.03
2022-09-30T11:23:35.492Z,-23623.56
2022-09-30T11:25:44.243Z,-23618.97
2022-09-30T11:28:10.659Z,-23609.66
2022-09-30T11:30:17.264Z,-23626.72
2022-09-30T11:32:34.566Z,-23620.56
2022-09-30T11:34:53.450Z,-23628.59
2022-09-30T11:37:03.785Z,-23667.72
2022-09-30T11:39:28.611Z,-23669.94
2022-09-30T11:41:34.582Z,-23633.81
2022-09-30T11:43:46.291Z,-23654.16
2022-09-30T11:46:12.444Z,-23675.59
2022-09-30T11:48:32.557Z,-23642.47
2022-09-30T11:50:53.787Z,-23651.78
2022-09-30T11:53:06.846Z,-23659.22
2022-09-30T11:55:29.108Z,-23635.53
2022-09-30T11:57:37.803Z,-23663.31
2022-09-30T11:59:44.712Z,-23653.84
2022-09-30T12:01:50.658Z,-23642.97
2022-09-30T12:04:02.053Z,-23655.75
2022-09-30T12:06:13.101Z,-23693.56
2022-09-30T12:08:19.926Z,-23699.06
2022-09-30T12:10:25.800Z,-23694.50
2022-09-30T12:12:28.693Z,-23692.00
2022-09-30T12:14:36.766Z,-23705.53
2022-09-30T12:16:40.665Z,-23725.22
2022-09-30T12:18:47.590Z,-23736.38
2022-09-30T12:20:54.808Z,-23687.56
2022-09-30T12:23:02.771Z,-23662.03
2022-09-30T12:25:15.910Z,-23655.75
2022-09-30T12:27:25.795Z,-23708.69
2022-09-30T12:29:50.725Z,-23710.09
2022-09-30T12:32:19.126Z,-23705.84
2022-09-30T12:34:36.269Z,-23707.09
2022-09-30T12:37:00.040Z,-23712.31
2022-09-30T12:39:47.952Z,-23715.75
2022-09-30T12:42:00.533Z,-23697.66
2022-09-30T12:44:40.962Z,-23693.41
2022-09-30T12:47:00.957Z,-23710.56
2022-09-30T12:49:07.725Z,-23731.50
2022-09-30T12:51:11.320Z,-23747.69
2022-09-30T12:53:20.491Z,-23722.22
2022-09-30T12:55:28.750Z,-23728.34
2022-09-30T12:57:34.887Z,-23724.25
2022-09-30T12:59:39.501Z,-23708.53
2022-09-30T13:01:43.836Z,-23717.81
2022-09-30T13:03:50.717Z,-23705.84
2022-09-30T13:05:57.639Z,-23714.50
2022-09-30T13:08:37.867Z,-23725.53
2022-09-30T13:10:48.534Z,-23705.84
2022-09-30T13:13:16.772Z,-23711.19
2022-09-30T13:15:43.283Z,-23728.81
2022-09-30T13:17:46.196Z,-23708.69
2022-09-30T13:19:51.657Z,-23660.63
2022-09-30T13:22:30.310Z,-23686.16
2022-09-30T13:25:11.926Z,-23721.75
2022-09-30T13:27:16.282Z,-23740.00
2022-09-30T13:29:39.899Z,-23711.66
2022-09-30T13:32:04.482Z,-23740.47
2022-09-30T13:34:12.329Z,-23707.25
2022-09-30T13:36:30.610Z,-23709.31
2022-09-30T13:38:36.923Z,-23705.84
2022-09-30T13:41:01.320Z,-23722.53
2022-09-30T13:43:06.693Z,-23709.00
2022-09-30T13:45:16.684Z,-23710.25
2022-09-30T13:47:26.886Z,-23681.91
2022-09-30T13:49:40.204Z,-23666.78
2022-09-30T13:51:43.499Z,-23680.16
2022-09-30T13:53:48.834Z,-23670.88
2022-09-30T13:55:54.516Z,-23678.91
2022-09-30T13:58:09.624Z,-23680.78
2022-09-30T14:00:17.140Z,-23697.66
2022-09-30T14:02:44.292Z,-23687.56
2022-09-30T14:05:02.398Z,-23686.00
2022-09-30T14:07:14.098Z,-23677.19
2022-09-30T14:09:39.169Z,-23654.31
2022-09-30T14:12:00.241Z,-23666.94
2022-09-30T14:14:19.348Z,-23672.13
2022-09-30T14:17:00.811Z,-23642.81
2022-09-30T14:19:30.001Z,-23658.25
2022-09-30T14:21:37.631Z,-23668.19
2022-09-30T14:23:40.393Z,-23662.34
2022-09-30T14:25:51.276Z,-23670.56
2022-09-30T14:28:04.556Z,-23667.88
2022-09-30T14:30:14.349Z,-23669.28
2022-09-30T14:32:21.317Z,-23665.81
2022-09-30T14:34:25.618Z,-23656.22
2022-09-30T14:36:28.349Z,-23653.22
2022-09-30T14:38:33.898Z,-23636.34
2022-09-30T14:40:40.093Z,-23632.69
2022-09-30T14:42:45.553Z,-23634.59
2022-09-30T14:44:49.157Z,-23631.75
2022-09-30T14:47:00.810Z,-23630.19
2022-09-30T14:49:07.056Z,-23635.38
2022-09-30T14:51:13.061Z,-23636.66
2022-09-30T14:53:26.379Z,-23633.19
2022-09-30T14:55:31.817Z,-23635.22
2022-09-30T14:57:34.920Z,-23638.22
2022-09-30T14:59:42.063Z,-23641.69
2022-09-30T15:01:49.092Z,-23641.22
2022-09-30T15:03:57.873Z,-23641.84
2022-09-30T15:06:00.672Z,-23628.28
2022-09-30T15:08:03.351Z,-23627.81
2022-09-30T15:10:07.488Z,-23627.50
2022-09-30T15:12:13.990Z,-23626.25
2022-09-30T15:14:20.268Z,-23636.97
2022-09-30T15:16:26.796Z,-23634.28
2022-09-30T15:18:33.799Z,-23640.28
2022-09-30T15:20:37.993Z,-23634.13
2022-09-30T15:22:40.646Z,-23630.19
2022-09-30T15:24:44.594Z,-23627.19
2022-09-30T15:26:49.297Z,-23631.44
2022-09-30T15:28:52.243Z,-23629.56
2022-09-30T15:30:59.041Z,-23636.97
2022-09-30T15:33:03.298Z,-23625.13
2022-09-30T15:35:06.853Z,-23627.03
2022-09-30T15:37:22.833Z,-23628.13
2022-09-30T15:39:50.382Z,-23625.13
2022-09-30T15:41:53.216Z,-23632.38
2022-09-30T15:44:00.294Z,-23619.75
2022-09-30T15:46:25.125Z,-23619.44
2022-09-30T15:48:36.183Z,-23620.72
2022-09-30T15:50:41.474Z,-23625.59
2022-09-30T15:52:47.087Z,-23622.91
2022-09-30T15:54:49.810Z,-23618.81
2022-09-30T15:56:52.590Z,-23618.50
2022-09-30T15:58:56.985Z,-23617.38
2022-09-30T16:01:15.035Z,-23622.59
2022-09-30T16:03:27.158Z,-23615.66
2022-09-30T16:05:29.852Z,-23618.97
2022-09-30T16:07:33.619Z,-23617.38
2022-09-30T16:09:40.338Z,-23607.13
2022-09-30T16:12:02.889Z,-23600.50
2022-09-30T16:14:08.631Z,-23603.34
2022-09-30T16:16:21.209Z,-23604.59
2022-09-30T16:18:31.315Z,-23607.91
2022-09-30T16:20:36.815Z,-23605.06
2022-09-30T16:22:54.303Z,-23602.69
2022-09-30T16:25:05.069Z,-23597.34
2022-09-30T16:27:30.212Z,-23591.81
2022-09-30T16:29:32.795Z,-23597.00
2022-09-30T16:31:35.484Z,-23583.91
2022-09-30T16:33:42.582Z,-23580.28
2022-09-30T16:35:47.257Z,-23578.69
2022-09-30T16:37:50.796Z,-23579.00
2022-09-30T16:39:53.404Z,-23572.03
2022-09-30T16:41:57.451Z,-23568.25
2022-09-30T16:44:00.043Z,-23570.16
2022-09-30T16:46:04.326Z,-23568.56
2022-09-30T16:48:15.357Z,-23571.09
2022-09-30T16:50:39.346Z,-23558.75
2022-09-30T16:52:42.193Z,-23553.53
2022-09-30T16:54:45.042Z,-23551.97
2022-09-30T16:56:47.939Z,-23553.22
2022-09-30T16:58:52.010Z,-23555.28
2022-09-30T17:00:55.009Z,-23546.91
2022-09-30T17:02:58.139Z,-23542.63
2022-09-30T17:05:00.934Z,-23541.69
2022-09-30T17:07:03.828Z,-23538.66
2022-09-30T17:09:06.609Z,-23536.28
2022-09-30T17:11:09.886Z,-23535.81
2022-09-30T17:13:15.504Z,-23534.88
2022-09-30T17:15:20.374Z,-23535.03
2022-09-30T17:17:22.950Z,-23532.34
2022-09-30T17:19:26.093Z,-23537.09
2022-09-30T17:21:29.012Z,-23535.66
2022-09-30T17:23:31.651Z,-23534.72
2022-09-30T17:25:34.390Z,-23534.72
2022-09-30T17:27:37.018Z,-23530.59
2022-09-30T17:29:42.016Z,-23526.94
2022-09-30T17:31:46.323Z,-23527.28
2022-09-30T17:33:49.018Z,-23526.94
2022-09-30T17:36:00.209Z,-23524.91
2022-09-30T17:38:02.861Z,-23527.75
2022-09-30T17:40:25.832Z,-23525.38
2022-09-30T17:42:46.309Z,-23522.84
2022-09-30T17:44:48.912Z,-23521.09
2022-09-30T17:47:00.478Z,-23520.16
2022-09-30T17:49:03.195Z,-23512.22
2022-09-30T17:51:07.778Z,-23509.53
2022-09-30T17:53:12.917Z,-23506.53
2022-09-30T17:55:15.688Z,-23504.00
2022-09-30T17:57:18.376Z,-23503.69
2022-09-30T17:59:21.731Z,-23499.41
2022-09-30T18:01:24.585Z,-23504.63
2022-09-30T18:03:28.893Z,-23500.97
2022-09-30T18:05:32.154Z,-23499.56
2022-09-30T18:07:34.757Z,-23500.81
2022-09-30T18:09:39.101Z,-23502.41
2022-09-30T18:11:43.809Z,-23496.06
2022-09-30T18:13:52.817Z,-23496.22
2022-09-30T18:15:55.668Z,-23497.66
2022-09-30T18:17:58.325Z,-23496.38
2022-09-30T18:20:02.856Z,-23494.31
2022-09-30T18:22:05.518Z,-23496.72
2022-09-30T18:24:08.194Z,-23493.22
2022-09-30T18:26:10.896Z,-23494.50
2022-09-30T18:28:14.212Z,-23496.53
2022-09-30T18:30:17.732Z,-23496.88
2022-09-30T18:32:20.509Z,-23496.38
2022-09-30T18:34:23.568Z,-23497.03
2022-09-30T18:36:29.459Z,-23499.25
2022-09-30T18:38:32.057Z,-23495.75
2022-09-30T18:40:35.100Z,-23494.50
2022-09-30T18:42:38.648Z,-23492.91
2022-09-30T18:44:41.660Z,-23493.22
2022-09-30T18:46:44.316Z,-23491.94
2022-09-30T18:48:49.900Z,-23494.16
2022-09-30T18:50:53.808Z,-23488.63
2022-09-30T18:52:58.801Z,-23487.34
2022-09-30T18:55:01.395Z,-23485.91
2022-09-30T18:57:04.320Z,-23494.50
2022-09-30T19:01:11.061Z,-23496.72
2022-09-30T19:03:16.070Z,-23493.53
2022-09-30T19:05:18.751Z,-23493.22
2022-09-30T19:07:21.933Z,-23489.72
2022-09-30T19:09:26.579Z,-23495.59
2022-09-30T19:11:31.533Z,-23493.22
2022-09-30T19:13:34.317Z,-23491.31
2022-09-30T19:15:39.176Z,-23488.47
2022-09-30T19:17:42.328Z,-23490.38
2022-09-30T19:19:46.065Z,-23495.44
2022-09-30T19:21:49.754Z,-23491.63
2022-09-30T19:23:52.418Z,-23492.44
2022-09-30T19:25:56.384Z,-23496.06
2022-09-30T19:27:59.951Z,-23492.91
2022-09-30T19:30:02.756Z,-23490.03
2022-09-30T19:32:05.677Z,-23488.47
2022-09-30T19:34:10.974Z,-23485.59
2022-09-30T19:36:15.835Z,-23483.72
2022-09-30T19:38:23.342Z,-23483.72
2022-09-30T19:42:37.714Z,-23479.59
2022-09-30T19:44:40.535Z,-23477.19
2022-09-30T19:46:43.136Z,-23477.03
2022-09-30T19:48:45.945Z,-23476.09
2022-09-30T19:50:48.987Z,-23476.09
2022-09-30T19:52:57.325Z,-23475.94
2022-09-30T19:55:12.314Z,-23475.78
2022-09-30T19:57:17.604Z,-23476.25
2022-09-30T19:59:21.707Z,-23478.31
2022-09-30T20:01:28.210Z,-23476.88
2022-09-30T20:03:31.668Z,-23476.72
2022-09-30T20:05:35.959Z,-23477.03
2022-09-30T20:07:38.609Z,-23476.09
2022-09-30T20:09:42.235Z,-23473.88
2022-09-30T20:11:45.357Z,-23474.34
2022-09-30T20:13:50.954Z,-23472.28
2022-09-30T20:15:53.927Z,-23471.03
2022-09-30T20:17:56.591Z,-23473.41
2022-09-30T20:20:16.698Z,-23471.97
2022-09-30T20:22:19.288Z,-23470.22
2022-09-30T20:24:22.063Z,-23471.03
2022-09-30T20:26:25.554Z,-23471.97
2022-09-30T20:28:28.772Z,-23469.91
2022-09-30T20:30:31.948Z,-23466.25
2022-09-30T20:32:35.902Z,-23466.25
2022-09-30T20:34:39.019Z,-23463.41
2022-09-30T20:36:42.648Z,-23464.38
2022-09-30T20:38:46.536Z,-23462.78
2022-09-30T20:40:54.558Z,-23461.19
2022-09-30T20:43:01.295Z,-23461.19
2022-09-30T20:45:06.100Z,-23460.88
2022-09-30T20:47:08.686Z,-23458.19
2022-09-30T20:49:12.631Z,-23458.34
2022-09-30T20:51:17.485Z,-23453.56
2022-09-30T20:53:20.325Z,-23454.84
2022-09-30T20:55:22.924Z,-23453.91
2022-09-30T20:57:25.590Z,-23451.84
2022-09-30T20:59:28.430Z,-23450.25
2022-09-30T21:01:31.428Z,-23447.53
2022-09-30T21:03:36.449Z,-23448.50
2022-09-30T21:05:40.879Z,-23448.19
2022-09-30T21:07:44.919Z,-23447.88
2022-09-30T21:09:48.075Z,-23447.53
2022-09-30T21:11:50.657Z,-23446.59
2022-09-30T21:13:54.446Z,-23446.28
2022-09-30T21:16:02.285Z,-23446.75
2022-09-30T21:18:05.213Z,-23446.28
2022-09-30T21:20:08.989Z,-23447.38
2022-09-30T21:22:13.040Z,-23448.34
2022-09-30T21:24:16.306Z,-23448.19
2022-09-30T21:26:19.164Z,-23445.31
2022-09-30T21:28:22.274Z,-23443.75
2022-09-30T21:30:26.974Z,-23446.91
2022-09-30T21:32:29.874Z,-23445.47
2022-09-30T21:34:32.488Z,-23444.69
2022-09-30T21:36:35.189Z,-23442.94
2022-09-30T21:38:39.193Z,-23443.59
2022-09-30T21:40:41.827Z,-23445.00
2022-09-30T21:42:44.533Z,-23440.88
2022-09-30T21:44:47.590Z,-23442.16
2022-09-30T21:46:50.369Z,-23443.09
2022-09-30T21:49:04.674Z,-23445.31
2022-09-30T21:51:08.148Z,-23445.97
2022-09-30T21:53:10.758Z,-23447.53
2022-09-30T21:55:14.976Z,-23446.59
2022-09-30T21:57:17.533Z,-23448.66
2022-09-30T21:59:20.192Z,-23445.97
2022-09-30T22:01:22.887Z,-23446.13
2022-09-30T22:03:25.844Z,-23445.16
2022-09-30T22:05:28.480Z,-23447.38
2022-09-30T22:07:32.959Z,-23446.91
2022-09-30T22:09:39.286Z,-23447.88
2022-09-30T22:11:43.803Z,-23447.72
2022-09-30T22:13:47.709Z,-23449.59
2022-09-30T22:15:50.790Z,-23446.13
2022-09-30T22:17:53.547Z,-23447.53
2022-09-30T22:19:57.720Z,-23448.03
2022-09-30T22:22:01.665Z,-23449.78
2022-09-30T22:24:06.409Z,-23448.19
2022-09-30T22:26:10.935Z,-23448.50
2022-09-30T22:28:14.970Z,-23445.00
2022-09-30T22:30:17.743Z,-23446.91
2022-09-30T22:32:20.402Z,-23448.81
2022-09-30T22:34:40.572Z,-23449.44
2022-09-30T22:37:01.443Z,-23449.13
2022-09-30T22:39:04.328Z,-23453.25
2022-09-30T22:41:07.056Z,-23455.31
2022-09-30T22:43:09.632Z,-23451.03
2022-09-30T22:45:13.625Z,-23448.81
2022-09-30T22:47:16.271Z,-23448.03
2022-09-30T22:49:19.209Z,-23447.06
2022-09-30T22:51:21.751Z,-23446.75
2022-09-30T22:53:24.651Z,-23446.44
2022-09-30T22:55:27.200Z,-23446.75
2022-09-30T22:57:30.901Z,-23445.00
2022-09-30T22:59:33.482Z,-23446.91
2022-09-30T23:01:37.464Z,-23442.16
2022-09-30T23:03:40.113Z,-23440.25
2022-09-30T23:05:42.795Z,-23440.56
2022-09-30T23:07:45.372Z,-23443.09
2022-09-30T23:09:48.073Z,-23446.59
2022-09-30T23:11:53.579Z,-23443.41
2022-09-30T23:13:59.098Z,-23439.59
2022-09-30T23:16:02.893Z,-23438.03
2022-09-30T23:18:06.889Z,-23433.28
2022-09-30T23:20:10.386Z,-23431.53
2022-09-30T23:22:13.377Z,-23431.53
2022-09-30T23:24:16.153Z,-23433.59
2022-09-30T23:26:20.690Z,-23429.78
2022-09-30T23:28:23.414Z,-23432.00
2022-09-30T23:30:26.777Z,-23428.81
2022-09-30T23:32:29.677Z,-23428.97
2022-09-30T23:34:33.619Z,-23430.41
2022-09-30T23:36:37.614Z,-23425.78
2022-09-30T23:38:40.481Z,-23424.53
2022-09-30T23:40:44.063Z,-23428.19
2022-09-30T23:42:46.723Z,-23424.69
2022-09-30T23:44:49.336Z,-23423.09
2022-09-30T23:47:09.598Z,-23419.59
2022-09-30T23:49:12.187Z,-23421.66
2022-09-30T23:51:16.184Z,-23421.34
2022-09-30T23:53:19.619Z,-23419.94
2022-09-30T23:55:22.263Z,-23420.25
2022-09-30T23:57:24.964Z,-23416.91
2022-09-30T23:59:28.510Z,-23418.97
